sensor_id;sensor_type;location;lat;lon;timestamp;P1;durP1;ratioP1;P2;durP2;ratioP2
12687;SDS011;6408;59.388;17.798;2023-12-22T00:00:07;1.23;;;0.20;;
12687;SDS011;6408;59.388;17.798;2023-12-22T00:02:35;0.57;;;0.30;;
12687;SDS011;6408;59.388;17.798;2023-12-22T00:05:02;0.53;;;0.20;;
12687;SDS011;6408;59.388;17.798;2023-12-22T00:07:31;0.10;;;0.10;;
12687;SDS011;6408;59.388;17.798;2023-12-22T00:09:58;0.67;;;0.30;;
12687;SDS011;6408;59.388;17.798;2023-12-22T00:12:25;0.20;;;0.20;;
12687;SDS011;6408;59.388;17.798;2023-12-22T00:14:52;0.70;;;0.40;;
12687;SDS011;6408;59.388;17.798;2023-12-22T00:17:19;1.10;;;0.30;;
12687;SDS011;6408;59.388;17.798;2023-12-22T00:19:45;0.23;;;0.20;;
12687;SDS011;6408;59.388;17.798;2023-12-22T00:22:12;0.40;;;0.40;;
12687;SDS011;6408;59.388;17.798;2023-12-22T00:24:41;1.23;;;0.50;;
12687;SDS011;6408;59.388;17.798;2023-12-22T00:27:08;0.70;;;0.57;;
12687;SDS011;6408;59.388;17.798;2023-12-22T00:29:35;0.93;;;0.47;;
12687;SDS011;6408;59.388;17.798;2023-12-22T00:32:02;0.17;;;0.17;;
12687;SDS011;6408;59.388;17.798;2023-12-22T00:34:30;0.43;;;0.40;;
12687;SDS011;6408;59.388;17.798;2023-12-22T00:36:57;0.30;;;0.30;;
12687;SDS011;6408;59.388;17.798;2023-12-22T00:39:25;1.00;;;0.27;;
12687;SDS011;6408;59.388;17.798;2023-12-22T00:41:53;0.50;;;0.20;;
12687;SDS011;6408;59.388;17.798;2023-12-22T00:44:20;0.60;;;0.57;;
12687;SDS011;6408;59.388;17.798;2023-12-22T00:46:47;0.63;;;0.30;;
12687;SDS011;6408;59.388;17.798;2023-12-22T00:49:14;0.37;;;0.30;;
12687;SDS011;6408;59.388;17.798;2023-12-22T00:51:41;0.50;;;0.40;;
12687;SDS011;6408;59.388;17.798;2023-12-22T00:54:08;0.33;;;0.33;;
12687;SDS011;6408;59.388;17.798;2023-12-22T00:56:36;0.50;;;0.40;;
12687;SDS011;6408;59.388;17.798;2023-12-22T00:59:04;0.93;;;0.53;;
12687;SDS011;6408;59.388;17.798;2023-12-22T01:01:32;0.70;;;0.40;;
12687;SDS011;6408;59.388;17.798;2023-12-22T01:03:59;0.63;;;0.60;;
12687;SDS011;6408;59.388;17.798;2023-12-22T01:06:26;1.53;;;0.27;;
12687;SDS011;6408;59.388;17.798;2023-12-22T01:08:53;0.23;;;0.07;;
12687;SDS011;6408;59.388;17.798;2023-12-22T01:11:20;0.40;;;0.30;;
12687;SDS011;6408;59.388;17.798;2023-12-22T01:13:47;0.70;;;0.60;;
12687;SDS011;6408;59.388;17.798;2023-12-22T01:16:16;2.23;;;0.40;;
12687;SDS011;6408;59.388;17.798;2023-12-22T01:18:46;0.20;;;0.20;;
12687;SDS011;6408;59.388;17.798;2023-12-22T01:21:13;0.57;;;0.50;;
12687;SDS011;6408;59.388;17.798;2023-12-22T01:23:41;0.30;;;0.30;;
12687;SDS011;6408;59.388;17.798;2023-12-22T01:26:08;0.27;;;0.27;;
12687;SDS011;6408;59.388;17.798;2023-12-22T01:28:35;0.30;;;0.27;;
12687;SDS011;6408;59.388;17.798;2023-12-22T01:31:02;0.70;;;0.30;;
12687;SDS011;6408;59.388;17.798;2023-12-22T01:33:31;0.37;;;0.30;;
12687;SDS011;6408;59.388;17.798;2023-12-22T01:35:58;0.30;;;0.20;;
12687;SDS011;6408;59.388;17.798;2023-12-22T01:38:25;0.20;;;0.20;;
12687;SDS011;6408;59.388;17.798;2023-12-22T01:40:52;1.27;;;0.70;;
12687;SDS011;6408;59.388;17.798;2023-12-22T01:43:19;1.03;;;0.50;;
12687;SDS011;6408;59.388;17.798;2023-12-22T01:45:49;1.10;;;0.60;;
12687;SDS011;6408;59.388;17.798;2023-12-22T01:48:21;0.70;;;0.70;;
12687;SDS011;6408;59.388;17.798;2023-12-22T01:50:50;0.80;;;0.43;;
12687;SDS011;6408;59.388;17.798;2023-12-22T01:53:18;1.40;;;0.60;;
12687;SDS011;6408;59.388;17.798;2023-12-22T01:55:46;0.77;;;0.37;;
12687;SDS011;6408;59.388;17.798;2023-12-22T01:58:16;0.30;;;0.30;;
12687;SDS011;6408;59.388;17.798;2023-12-22T02:00:44;0.23;;;0.20;;
12687;SDS011;6408;59.388;17.798;2023-12-22T02:03:12;0.40;;;0.37;;
12687;SDS011;6408;59.388;17.798;2023-12-22T02:05:40;0.30;;;0.30;;
12687;SDS011;6408;59.388;17.798;2023-12-22T02:08:09;0.50;;;0.50;;
12687;SDS011;6408;59.388;17.798;2023-12-22T02:10:37;1.37;;;0.40;;
12687;SDS011;6408;59.388;17.798;2023-12-22T02:13:04;0.27;;;0.27;;
12687;SDS011;6408;59.388;17.798;2023-12-22T02:15:32;0.67;;;0.27;;
12687;SDS011;6408;59.388;17.798;2023-12-22T02:18:02;0.90;;;0.40;;
12687;SDS011;6408;59.388;17.798;2023-12-22T02:20:33;0.10;;;0.10;;
12687;SDS011;6408;59.388;17.798;2023-12-22T02:23:02;0.20;;;0.20;;
12687;SDS011;6408;59.388;17.798;2023-12-22T02:25:29;0.20;;;0.10;;
12687;SDS011;6408;59.388;17.798;2023-12-22T02:27:57;0.37;;;0.30;;
12687;SDS011;6408;59.388;17.798;2023-12-22T02:30:31;0.10;;;0.10;;
12687;SDS011;6408;59.388;17.798;2023-12-22T02:33:04;0.53;;;0.30;;
12687;SDS011;6408;59.388;17.798;2023-12-22T02:35:35;0.20;;;0.20;;
12687;SDS011;6408;59.388;17.798;2023-12-22T02:38:05;0.10;;;0.10;;
12687;SDS011;6408;59.388;17.798;2023-12-22T02:40:34;0.63;;;0.40;;
12687;SDS011;6408;59.388;17.798;2023-12-22T02:43:01;0.87;;;0.27;;
12687;SDS011;6408;59.388;17.798;2023-12-22T02:45:29;0.30;;;0.30;;
12687;SDS011;6408;59.388;17.798;2023-12-22T02:47:57;0.20;;;0.20;;
12687;SDS011;6408;59.388;17.798;2023-12-22T02:50:24;0.20;;;0.20;;
12687;SDS011;6408;59.388;17.798;2023-12-22T02:52:51;0.10;;;0.10;;
12687;SDS011;6408;59.388;17.798;2023-12-22T02:55:20;0.20;;;0.20;;
12687;SDS011;6408;59.388;17.798;2023-12-22T02:57:47;0.20;;;0.20;;
12687;SDS011;6408;59.388;17.798;2023-12-22T03:00:14;0.60;;;0.40;;
12687;SDS011;6408;59.388;17.798;2023-12-22T03:02:41;1.40;;;0.50;;
12687;SDS011;6408;59.388;17.798;2023-12-22T03:05:08;0.43;;;0.20;;
12687;SDS011;6408;59.388;17.798;2023-12-22T03:07:36;0.20;;;0.20;;
12687;SDS011;6408;59.388;17.798;2023-12-22T03:10:03;0.20;;;0.20;;
12687;SDS011;6408;59.388;17.798;2023-12-22T03:12:32;0.27;;;0.27;;
12687;SDS011;6408;59.388;17.798;2023-12-22T03:14:59;0.30;;;0.30;;
12687;SDS011;6408;59.388;17.798;2023-12-22T03:17:26;0.83;;;0.30;;
12687;SDS011;6408;59.388;17.798;2023-12-22T03:19:53;0.40;;;0.37;;
12687;SDS011;6408;59.388;17.798;2023-12-22T03:22:20;0.70;;;0.30;;
12687;SDS011;6408;59.388;17.798;2023-12-22T03:24:47;0.17;;;0.10;;
12687;SDS011;6408;59.388;17.798;2023-12-22T03:27:14;0.50;;;0.30;;
12687;SDS011;6408;59.388;17.798;2023-12-22T03:29:44;0.87;;;0.43;;
12687;SDS011;6408;59.388;17.798;2023-12-22T03:32:11;0.27;;;0.27;;
12687;SDS011;6408;59.388;17.798;2023-12-22T03:34:38;0.13;;;0.13;;
12687;SDS011;6408;59.388;17.798;2023-12-22T03:37:06;0.33;;;0.20;;
12687;SDS011;6408;59.388;17.798;2023-12-22T03:39:33;0.30;;;0.30;;
12687;SDS011;6408;59.388;17.798;2023-12-22T03:42:00;0.20;;;0.20;;
12687;SDS011;6408;59.388;17.798;2023-12-22T03:44:27;0.30;;;0.30;;
12687;SDS011;6408;59.388;17.798;2023-12-22T03:46:56;0.20;;;0.10;;
12687;SDS011;6408;59.388;17.798;2023-12-22T03:49:23;0.20;;;0.20;;
12687;SDS011;6408;59.388;17.798;2023-12-22T03:51:50;0.20;;;0.20;;
12687;SDS011;6408;59.388;17.798;2023-12-22T03:54:17;0.43;;;0.30;;
12687;SDS011;6408;59.388;17.798;2023-12-22T03:56:44;0.57;;;0.40;;
12687;SDS011;6408;59.388;17.798;2023-12-22T03:59:11;0.47;;;0.33;;
12687;SDS011;6408;59.388;17.798;2023-12-22T04:01:38;0.43;;;0.43;;
12687;SDS011;6408;59.388;17.798;2023-12-22T04:04:06;0.40;;;0.40;;
12687;SDS011;6408;59.388;17.798;2023-12-22T04:06:37;0.23;;;0.23;;
12687;SDS011;6408;59.388;17.798;2023-12-22T04:09:05;0.50;;;0.50;;
12687;SDS011;6408;59.388;17.798;2023-12-22T04:11:32;0.83;;;0.70;;
12687;SDS011;6408;59.388;17.798;2023-12-22T04:14:09;0.67;;;0.67;;
12687;SDS011;6408;59.388;17.798;2023-12-22T04:16:36;0.40;;;0.40;;
12687;SDS011;6408;59.388;17.798;2023-12-22T04:19:03;1.10;;;0.60;;
12687;SDS011;6408;59.388;17.798;2023-12-22T04:21:32;2.23;;;0.90;;
12687;SDS011;6408;59.388;17.798;2023-12-22T04:23:59;0.57;;;0.50;;
12687;SDS011;6408;59.388;17.798;2023-12-22T04:26:27;0.43;;;0.43;;
12687;SDS011;6408;59.388;17.798;2023-12-22T04:28:54;0.90;;;0.70;;
12687;SDS011;6408;59.388;17.798;2023-12-22T04:31:21;0.60;;;0.53;;
12687;SDS011;6408;59.388;17.798;2023-12-22T04:33:48;0.50;;;0.50;;
12687;SDS011;6408;59.388;17.798;2023-12-22T04:36:15;0.33;;;0.33;;
12687;SDS011;6408;59.388;17.798;2023-12-22T04:38:44;0.80;;;0.57;;
12687;SDS011;6408;59.388;17.798;2023-12-22T04:41:11;0.90;;;0.60;;
12687;SDS011;6408;59.388;17.798;2023-12-22T04:43:38;0.50;;;0.50;;
12687;SDS011;6408;59.388;17.798;2023-12-22T04:46:05;1.23;;;0.50;;
12687;SDS011;6408;59.388;17.798;2023-12-22T04:48:32;0.90;;;0.60;;
12687;SDS011;6408;59.388;17.798;2023-12-22T04:50:59;0.90;;;0.60;;
12687;SDS011;6408;59.388;17.798;2023-12-22T04:53:27;1.00;;;0.80;;
12687;SDS011;6408;59.388;17.798;2023-12-22T04:55:56;1.97;;;0.77;;
12687;SDS011;6408;59.388;17.798;2023-12-22T04:58:24;1.40;;;0.83;;
12687;SDS011;6408;59.388;17.798;2023-12-22T05:00:51;1.10;;;0.80;;
12687;SDS011;6408;59.388;17.798;2023-12-22T05:03:18;0.63;;;0.60;;
12687;SDS011;6408;59.388;17.798;2023-12-22T05:05:46;1.10;;;0.63;;
12687;SDS011;6408;59.388;17.798;2023-12-22T05:08:13;2.33;;;1.03;;
12687;SDS011;6408;59.388;17.798;2023-12-22T05:10:41;1.00;;;0.90;;
12687;SDS011;6408;59.388;17.798;2023-12-22T05:13:10;1.73;;;0.50;;
12687;SDS011;6408;59.388;17.798;2023-12-22T05:15:37;1.10;;;0.90;;
12687;SDS011;6408;59.388;17.798;2023-12-22T05:18:04;1.50;;;1.00;;
12687;SDS011;6408;59.388;17.798;2023-12-22T05:20:31;0.70;;;0.70;;
12687;SDS011;6408;59.388;17.798;2023-12-22T05:22:58;1.77;;;1.03;;
12687;SDS011;6408;59.388;17.798;2023-12-22T05:25:25;0.73;;;0.73;;
12687;SDS011;6408;59.388;17.798;2023-12-22T05:27:54;1.80;;;1.30;;
12687;SDS011;6408;59.388;17.798;2023-12-22T05:30:22;1.43;;;1.10;;
12687;SDS011;6408;59.388;17.798;2023-12-22T05:32:50;1.10;;;1.00;;
12687;SDS011;6408;59.388;17.798;2023-12-22T05:35:17;2.07;;;1.30;;
12687;SDS011;6408;59.388;17.798;2023-12-22T05:37:44;0.90;;;0.83;;
12687;SDS011;6408;59.388;17.798;2023-12-22T05:40:11;3.37;;;1.40;;
12687;SDS011;6408;59.388;17.798;2023-12-22T05:42:38;1.83;;;1.40;;
12687;SDS011;6408;59.388;17.798;2023-12-22T05:45:06;1.70;;;1.03;;
12687;SDS011;6408;59.388;17.798;2023-12-22T05:47:36;2.53;;;1.20;;
12687;SDS011;6408;59.388;17.798;2023-12-22T05:50:04;1.63;;;1.43;;
12687;SDS011;6408;59.388;17.798;2023-12-22T05:52:31;1.90;;;1.30;;
12687;SDS011;6408;59.388;17.798;2023-12-22T05:54:58;2.83;;;1.43;;
12687;SDS011;6408;59.388;17.798;2023-12-22T05:57:26;1.07;;;0.97;;
12687;SDS011;6408;59.388;17.798;2023-12-22T05:59:53;2.23;;;1.23;;
12687;SDS011;6408;59.388;17.798;2023-12-22T06:02:20;1.67;;;1.40;;
12687;SDS011;6408;59.388;17.798;2023-12-22T06:04:49;1.40;;;1.20;;
12687;SDS011;6408;59.388;17.798;2023-12-22T06:07:16;1.63;;;1.27;;
12687;SDS011;6408;59.388;17.798;2023-12-22T06:09:44;1.97;;;1.20;;
12687;SDS011;6408;59.388;17.798;2023-12-22T06:12:11;1.70;;;1.47;;
12687;SDS011;6408;59.388;17.798;2023-12-22T06:14:39;1.00;;;0.90;;
12687;SDS011;6408;59.388;17.798;2023-12-22T06:17:06;1.93;;;1.27;;
12687;SDS011;6408;59.388;17.798;2023-12-22T06:19:33;0.93;;;0.83;;
12687;SDS011;6408;59.388;17.798;2023-12-22T06:22:09;1.97;;;1.50;;
12687;SDS011;6408;59.388;17.798;2023-12-22T06:24:36;2.10;;;1.00;;
12687;SDS011;6408;59.388;17.798;2023-12-22T06:27:04;1.90;;;1.40;;
12687;SDS011;6408;59.388;17.798;2023-12-22T06:29:31;1.37;;;1.00;;
12687;SDS011;6408;59.388;17.798;2023-12-22T06:31:59;2.43;;;1.30;;
12687;SDS011;6408;59.388;17.798;2023-12-22T06:34:31;1.53;;;1.30;;
12687;SDS011;6408;59.388;17.798;2023-12-22T06:36:58;1.60;;;1.30;;
12687;SDS011;6408;59.388;17.798;2023-12-22T06:39:27;1.20;;;0.90;;
12687;SDS011;6408;59.388;17.798;2023-12-22T06:41:54;1.63;;;1.40;;
12687;SDS011;6408;59.388;17.798;2023-12-22T06:44:21;1.50;;;1.20;;
12687;SDS011;6408;59.388;17.798;2023-12-22T06:46:48;2.43;;;1.07;;
12687;SDS011;6408;59.388;17.798;2023-12-22T06:49:15;1.40;;;0.90;;
12687;SDS011;6408;59.388;17.798;2023-12-22T06:51:42;1.70;;;1.10;;
12687;SDS011;6408;59.388;17.798;2023-12-22T06:54:09;1.37;;;1.10;;
12687;SDS011;6408;59.388;17.798;2023-12-22T06:56:38;3.03;;;1.10;;
12687;SDS011;6408;59.388;17.798;2023-12-22T06:59:05;1.63;;;1.10;;
12687;SDS011;6408;59.388;17.798;2023-12-22T07:01:33;1.70;;;0.93;;
12687;SDS011;6408;59.388;17.798;2023-12-22T07:04:01;2.60;;;1.50;;
12687;SDS011;6408;59.388;17.798;2023-12-22T07:06:30;1.10;;;1.00;;
12687;SDS011;6408;59.388;17.798;2023-12-22T07:11:57;2.10;;;1.37;;
12687;SDS011;6408;59.388;17.798;2023-12-22T07:14:24;1.03;;;0.87;;
12687;SDS011;6408;59.388;17.798;2023-12-22T07:16:51;1.30;;;1.00;;
12687;SDS011;6408;59.388;17.798;2023-12-22T07:19:18;2.30;;;1.60;;
12687;SDS011;6408;59.388;17.798;2023-12-22T07:21:45;1.07;;;0.97;;
12687;SDS011;6408;59.388;17.798;2023-12-22T07:24:13;1.50;;;1.30;;
12687;SDS011;6408;59.388;17.798;2023-12-22T07:26:41;1.33;;;1.23;;
12687;SDS011;6408;59.388;17.798;2023-12-22T07:29:24;2.00;;;1.20;;
12687;SDS011;6408;59.388;17.798;2023-12-22T07:31:51;2.00;;;1.00;;
12687;SDS011;6408;59.388;17.798;2023-12-22T07:34:18;2.70;;;1.33;;
12687;SDS011;6408;59.388;17.798;2023-12-22T07:36:47;2.30;;;1.53;;
12687;SDS011;6408;59.388;17.798;2023-12-22T07:39:14;1.93;;;1.40;;
12687;SDS011;6408;59.388;17.798;2023-12-22T07:41:43;1.77;;;1.30;;
12687;SDS011;6408;59.388;17.798;2023-12-22T07:44:11;1.27;;;1.03;;
12687;SDS011;6408;59.388;17.798;2023-12-22T07:46:40;1.93;;;1.40;;
12687;SDS011;6408;59.388;17.798;2023-12-22T07:49:07;1.60;;;1.13;;
12687;SDS011;6408;59.388;17.798;2023-12-22T07:51:35;2.10;;;1.20;;
12687;SDS011;6408;59.388;17.798;2023-12-22T07:54:02;2.53;;;1.53;;
12687;SDS011;6408;59.388;17.798;2023-12-22T07:56:29;3.97;;;2.17;;
12687;SDS011;6408;59.388;17.798;2023-12-22T07:58:56;2.87;;;1.90;;
12687;SDS011;6408;59.388;17.798;2023-12-22T08:01:27;2.87;;;2.00;;
12687;SDS011;6408;59.388;17.798;2023-12-22T08:04:01;4.07;;;1.70;;
12687;SDS011;6408;59.388;17.798;2023-12-22T08:06:28;2.33;;;1.40;;
12687;SDS011;6408;59.388;17.798;2023-12-22T08:08:55;1.87;;;1.23;;
12687;SDS011;6408;59.388;17.798;2023-12-22T08:11:22;2.03;;;1.57;;
12687;SDS011;6408;59.388;17.798;2023-12-22T08:13:50;3.13;;;1.70;;
12687;SDS011;6408;59.388;17.798;2023-12-22T08:16:18;2.77;;;1.90;;
12687;SDS011;6408;59.388;17.798;2023-12-22T08:18:47;2.20;;;1.30;;
12687;SDS011;6408;59.388;17.798;2023-12-22T08:21:15;1.80;;;1.40;;
12687;SDS011;6408;59.388;17.798;2023-12-22T08:23:43;1.83;;;1.30;;
12687;SDS011;6408;59.388;17.798;2023-12-22T08:26:10;5.03;;;1.73;;
12687;SDS011;6408;59.388;17.798;2023-12-22T08:28:39;2.67;;;1.30;;
12687;SDS011;6408;59.388;17.798;2023-12-22T08:31:06;2.13;;;1.60;;
12687;SDS011;6408;59.388;17.798;2023-12-22T08:33:33;1.83;;;1.30;;
12687;SDS011;6408;59.388;17.798;2023-12-22T08:36:02;1.97;;;1.63;;
12687;SDS011;6408;59.388;17.798;2023-12-22T08:38:30;4.10;;;2.10;;
12687;SDS011;6408;59.388;17.798;2023-12-22T08:40:57;2.33;;;1.50;;
12687;SDS011;6408;59.388;17.798;2023-12-22T08:43:24;2.13;;;1.67;;
12687;SDS011;6408;59.388;17.798;2023-12-22T08:45:51;2.87;;;1.53;;
12687;SDS011;6408;59.388;17.798;2023-12-22T08:48:18;4.40;;;1.77;;
12687;SDS011;6408;59.388;17.798;2023-12-22T08:50:45;2.23;;;1.67;;
12687;SDS011;6408;59.388;17.798;2023-12-22T08:53:14;2.03;;;1.63;;
12687;SDS011;6408;59.388;17.798;2023-12-22T08:55:41;2.37;;;1.63;;
12687;SDS011;6408;59.388;17.798;2023-12-22T08:58:08;2.63;;;1.70;;
12687;SDS011;6408;59.388;17.798;2023-12-22T09:00:35;2.93;;;2.00;;
12687;SDS011;6408;59.388;17.798;2023-12-22T09:03:02;3.70;;;2.40;;
12687;SDS011;6408;59.388;17.798;2023-12-22T09:05:30;5.73;;;3.13;;
12687;SDS011;6408;59.388;17.798;2023-12-22T09:07:57;4.83;;;2.60;;
12687;SDS011;6408;59.388;17.798;2023-12-22T09:10:26;6.27;;;2.77;;
12687;SDS011;6408;59.388;17.798;2023-12-22T09:12:53;2.03;;;1.70;;
12687;SDS011;6408;59.388;17.798;2023-12-22T09:15:20;2.83;;;1.87;;
12687;SDS011;6408;59.388;17.798;2023-12-22T09:17:47;2.47;;;1.70;;
12687;SDS011;6408;59.388;17.798;2023-12-22T09:20:15;1.90;;;1.30;;
12687;SDS011;6408;59.388;17.798;2023-12-22T09:22:42;2.40;;;1.90;;
12687;SDS011;6408;59.388;17.798;2023-12-22T09:25:09;2.37;;;1.73;;
12687;SDS011;6408;59.388;17.798;2023-12-22T09:27:38;3.63;;;2.17;;
12687;SDS011;6408;59.388;17.798;2023-12-22T09:30:06;3.27;;;1.97;;
12687;SDS011;6408;59.388;17.798;2023-12-22T09:32:33;2.97;;;2.10;;
12687;SDS011;6408;59.388;17.798;2023-12-22T09:35:01;3.47;;;2.00;;
12687;SDS011;6408;59.388;17.798;2023-12-22T09:37:28;5.00;;;2.10;;
12687;SDS011;6408;59.388;17.798;2023-12-22T09:39:55;2.60;;;1.63;;
12687;SDS011;6408;59.388;17.798;2023-12-22T09:42:22;3.20;;;1.90;;
12687;SDS011;6408;59.388;17.798;2023-12-22T09:44:54;2.37;;;1.63;;
12687;SDS011;6408;59.388;17.798;2023-12-22T09:47:27;4.00;;;2.20;;
12687;SDS011;6408;59.388;17.798;2023-12-22T09:49:55;3.30;;;2.07;;
12687;SDS011;6408;59.388;17.798;2023-12-22T09:52:23;3.07;;;1.83;;
12687;SDS011;6408;59.388;17.798;2023-12-22T09:54:51;2.80;;;2.00;;
12687;SDS011;6408;59.388;17.798;2023-12-22T09:57:21;3.47;;;2.20;;
12687;SDS011;6408;59.388;17.798;2023-12-22T09:59:50;3.10;;;2.20;;
12687;SDS011;6408;59.388;17.798;2023-12-22T10:02:20;3.73;;;2.07;;
12687;SDS011;6408;59.388;17.798;2023-12-22T10:04:47;3.60;;;1.90;;
12687;SDS011;6408;59.388;17.798;2023-12-22T10:07:14;2.97;;;1.97;;
12687;SDS011;6408;59.388;17.798;2023-12-22T10:09:44;3.40;;;1.67;;
12687;SDS011;6408;59.388;17.798;2023-12-22T10:12:13;5.10;;;2.57;;
12687;SDS011;6408;59.388;17.798;2023-12-22T10:14:41;3.87;;;2.30;;
12687;SDS011;6408;59.388;17.798;2023-12-22T10:17:09;3.77;;;2.20;;
12687;SDS011;6408;59.388;17.798;2023-12-22T10:19:38;2.70;;;2.10;;
12687;SDS011;6408;59.388;17.798;2023-12-22T10:22:05;2.93;;;2.07;;
12687;SDS011;6408;59.388;17.798;2023-12-22T10:24:40;4.23;;;2.67;;
12687;SDS011;6408;59.388;17.798;2023-12-22T10:27:08;3.63;;;2.40;;
12687;SDS011;6408;59.388;17.798;2023-12-22T10:29:37;3.70;;;2.50;;
12687;SDS011;6408;59.388;17.798;2023-12-22T10:32:05;5.13;;;2.57;;
12687;SDS011;6408;59.388;17.798;2023-12-22T10:34:32;3.87;;;2.47;;
12687;SDS011;6408;59.388;17.798;2023-12-22T10:37:01;3.07;;;2.00;;
12687;SDS011;6408;59.388;17.798;2023-12-22T10:39:29;3.87;;;2.37;;
12687;SDS011;6408;59.388;17.798;2023-12-22T10:41:57;4.93;;;2.47;;
12687;SDS011;6408;59.388;17.798;2023-12-22T10:44:24;5.20;;;2.40;;
12687;SDS011;6408;59.388;17.798;2023-12-22T10:46:52;4.10;;;2.40;;
12687;SDS011;6408;59.388;17.798;2023-12-22T10:49:20;5.33;;;2.80;;
12687;SDS011;6408;59.388;17.798;2023-12-22T10:51:47;5.17;;;2.60;;
12687;SDS011;6408;59.388;17.798;2023-12-22T10:54:15;4.60;;;2.60;;
12687;SDS011;6408;59.388;17.798;2023-12-22T10:56:43;4.17;;;2.53;;
12687;SDS011;6408;59.388;17.798;2023-12-22T10:59:10;4.43;;;2.20;;
12687;SDS011;6408;59.388;17.798;2023-12-22T11:01:37;3.70;;;2.30;;
12687;SDS011;6408;59.388;17.798;2023-12-22T11:04:05;4.50;;;2.90;;
12687;SDS011;6408;59.388;17.798;2023-12-22T11:06:35;4.93;;;2.97;;
12687;SDS011;6408;59.388;17.798;2023-12-22T11:09:03;4.97;;;2.50;;
12687;SDS011;6408;59.388;17.798;2023-12-22T11:11:36;4.13;;;2.57;;
12687;SDS011;6408;59.388;17.798;2023-12-22T11:14:04;4.30;;;2.77;;
12687;SDS011;6408;59.388;17.798;2023-12-22T11:16:33;4.30;;;2.70;;
12687;SDS011;6408;59.388;17.798;2023-12-22T11:19:01;4.93;;;3.00;;
12687;SDS011;6408;59.388;17.798;2023-12-22T11:21:29;5.77;;;2.30;;
12687;SDS011;6408;59.388;17.798;2023-12-22T11:23:57;4.17;;;2.40;;
12687;SDS011;6408;59.388;17.798;2023-12-22T11:26:25;5.10;;;3.20;;
12687;SDS011;6408;59.388;17.798;2023-12-22T11:28:54;4.73;;;2.87;;
12687;SDS011;6408;59.388;17.798;2023-12-22T11:31:23;5.27;;;3.00;;
12687;SDS011;6408;59.388;17.798;2023-12-22T11:33:52;5.23;;;2.90;;
12687;SDS011;6408;59.388;17.798;2023-12-22T11:36:21;6.17;;;3.27;;
12687;SDS011;6408;59.388;17.798;2023-12-22T11:38:50;5.47;;;3.50;;
12687;SDS011;6408;59.388;17.798;2023-12-22T11:41:18;5.77;;;2.87;;
12687;SDS011;6408;59.388;17.798;2023-12-22T11:43:48;4.83;;;2.93;;
12687;SDS011;6408;59.388;17.798;2023-12-22T11:46:17;3.83;;;2.37;;
12687;SDS011;6408;59.388;17.798;2023-12-22T11:48:48;4.37;;;2.93;;
12687;SDS011;6408;59.388;17.798;2023-12-22T11:51:15;4.33;;;2.90;;
12687;SDS011;6408;59.388;17.798;2023-12-22T11:53:43;4.93;;;2.53;;
12687;SDS011;6408;59.388;17.798;2023-12-22T11:56:11;3.97;;;2.70;;
12687;SDS011;6408;59.388;17.798;2023-12-22T11:58:39;4.87;;;3.00;;
12687;SDS011;6408;59.388;17.798;2023-12-22T12:01:08;5.53;;;2.57;;
12687;SDS011;6408;59.388;17.798;2023-12-22T12:03:40;4.10;;;2.50;;
12687;SDS011;6408;59.388;17.798;2023-12-22T12:06:15;3.07;;;2.17;;
12687;SDS011;6408;59.388;17.798;2023-12-22T12:08:43;5.40;;;2.87;;
12687;SDS011;6408;59.388;17.798;2023-12-22T12:11:10;3.70;;;2.57;;
12687;SDS011;6408;59.388;17.798;2023-12-22T12:13:41;3.33;;;2.33;;
12687;SDS011;6408;59.388;17.798;2023-12-22T12:16:11;3.63;;;2.63;;
12687;SDS011;6408;59.388;17.798;2023-12-22T12:18:40;3.27;;;2.00;;
12687;SDS011;6408;59.388;17.798;2023-12-22T12:21:07;6.23;;;2.77;;
12687;SDS011;6408;59.388;17.798;2023-12-22T12:23:36;4.00;;;2.47;;
12687;SDS011;6408;59.388;17.798;2023-12-22T12:26:05;3.50;;;2.40;;
12687;SDS011;6408;59.388;17.798;2023-12-22T12:28:33;4.53;;;2.57;;
12687;SDS011;6408;59.388;17.798;2023-12-22T12:31:02;3.10;;;2.40;;
12687;SDS011;6408;59.388;17.798;2023-12-22T12:33:31;4.60;;;2.87;;
12687;SDS011;6408;59.388;17.798;2023-12-22T12:36:00;3.40;;;2.30;;
12687;SDS011;6408;59.388;17.798;2023-12-22T12:38:35;4.70;;;2.50;;
12687;SDS011;6408;59.388;17.798;2023-12-22T12:41:06;3.97;;;2.40;;
12687;SDS011;6408;59.388;17.798;2023-12-22T12:43:35;3.63;;;2.37;;
12687;SDS011;6408;59.388;17.798;2023-12-22T12:46:07;3.90;;;2.47;;
12687;SDS011;6408;59.388;17.798;2023-12-22T12:48:34;3.87;;;2.50;;
12687;SDS011;6408;59.388;17.798;2023-12-22T12:51:04;3.57;;;2.23;;
12687;SDS011;6408;59.388;17.798;2023-12-22T12:53:32;6.13;;;2.63;;
12687;SDS011;6408;59.388;17.798;2023-12-22T12:55:59;3.53;;;2.27;;
12687;SDS011;6408;59.388;17.798;2023-12-22T12:58:28;2.50;;;1.90;;
12687;SDS011;6408;59.388;17.798;2023-12-22T13:01:04;3.10;;;2.30;;
12687;SDS011;6408;59.388;17.798;2023-12-22T13:03:33;3.53;;;2.40;;
12687;SDS011;6408;59.388;17.798;2023-12-22T13:06:22;3.43;;;2.00;;
12687;SDS011;6408;59.388;17.798;2023-12-22T13:08:49;2.97;;;2.10;;
12687;SDS011;6408;59.388;17.798;2023-12-22T13:11:19;5.57;;;2.50;;
12687;SDS011;6408;59.388;17.798;2023-12-22T13:13:47;4.40;;;2.20;;
12687;SDS011;6408;59.388;17.798;2023-12-22T13:16:17;3.03;;;2.03;;
12687;SDS011;6408;59.388;17.798;2023-12-22T13:18:44;3.80;;;2.40;;
12687;SDS011;6408;59.388;17.798;2023-12-22T13:21:11;2.70;;;1.83;;
12687;SDS011;6408;59.388;17.798;2023-12-22T13:23:40;3.33;;;2.00;;
12687;SDS011;6408;59.388;17.798;2023-12-22T13:26:17;4.13;;;1.80;;
12687;SDS011;6408;59.388;17.798;2023-12-22T13:28:44;3.20;;;2.10;;
12687;SDS011;6408;59.388;17.798;2023-12-22T13:31:11;5.00;;;2.17;;
12687;SDS011;6408;59.388;17.798;2023-12-22T13:33:40;2.93;;;1.83;;
12687;SDS011;6408;59.388;17.798;2023-12-22T13:36:07;3.03;;;1.90;;
12687;SDS011;6408;59.388;17.798;2023-12-22T13:38:34;2.60;;;1.60;;
12687;SDS011;6408;59.388;17.798;2023-12-22T13:41:03;3.10;;;2.20;;
12687;SDS011;6408;59.388;17.798;2023-12-22T13:43:33;3.10;;;1.97;;
12687;SDS011;6408;59.388;17.798;2023-12-22T13:46:00;3.23;;;2.00;;
12687;SDS011;6408;59.388;17.798;2023-12-22T13:48:28;3.00;;;2.07;;
12687;SDS011;6408;59.388;17.798;2023-12-22T13:50:56;2.17;;;1.60;;
12687;SDS011;6408;59.388;17.798;2023-12-22T13:53:24;3.10;;;1.83;;
12687;SDS011;6408;59.388;17.798;2023-12-22T13:55:55;3.80;;;1.67;;
12687;SDS011;6408;59.388;17.798;2023-12-22T13:58:23;3.80;;;1.73;;
12687;SDS011;6408;59.388;17.798;2023-12-22T14:00:50;2.70;;;1.90;;
12687;SDS011;6408;59.388;17.798;2023-12-22T14:03:18;2.50;;;1.70;;
12687;SDS011;6408;59.388;17.798;2023-12-22T14:05:46;3.33;;;2.10;;
12687;SDS011;6408;59.388;17.798;2023-12-22T14:08:14;2.47;;;1.70;;
12687;SDS011;6408;59.388;17.798;2023-12-22T14:10:45;3.80;;;1.90;;
12687;SDS011;6408;59.388;17.798;2023-12-22T14:13:13;3.77;;;1.90;;
12687;SDS011;6408;59.388;17.798;2023-12-22T14:15:42;3.03;;;2.00;;
12687;SDS011;6408;59.388;17.798;2023-12-22T14:18:10;3.03;;;1.90;;
12687;SDS011;6408;59.388;17.798;2023-12-22T14:20:37;2.67;;;1.90;;
12687;SDS011;6408;59.388;17.798;2023-12-22T14:23:04;2.87;;;1.83;;
12687;SDS011;6408;59.388;17.798;2023-12-22T14:25:31;2.20;;;1.87;;
12687;SDS011;6408;59.388;17.798;2023-12-22T14:27:59;2.47;;;1.80;;
12687;SDS011;6408;59.388;17.798;2023-12-22T14:30:26;2.37;;;1.63;;
12687;SDS011;6408;59.388;17.798;2023-12-22T14:32:54;2.00;;;1.80;;
12687;SDS011;6408;59.388;17.798;2023-12-22T14:35:21;3.00;;;1.90;;
12687;SDS011;6408;59.388;17.798;2023-12-22T14:37:48;2.33;;;1.40;;
12687;SDS011;6408;59.388;17.798;2023-12-22T14:40:15;2.23;;;1.87;;
12687;SDS011;6408;59.388;17.798;2023-12-22T14:42:42;2.30;;;1.70;;
12687;SDS011;6408;59.388;17.798;2023-12-22T14:45:09;2.40;;;1.80;;
12687;SDS011;6408;59.388;17.798;2023-12-22T14:47:36;2.23;;;1.70;;
12687;SDS011;6408;59.388;17.798;2023-12-22T14:50:06;1.73;;;1.53;;
12687;SDS011;6408;59.388;17.798;2023-12-22T14:52:33;3.13;;;2.30;;
12687;SDS011;6408;59.388;17.798;2023-12-22T14:55:00;2.70;;;1.97;;